sensor_id;sensor_type;location;lat;lon;timestamp;pressure;altitude;pressure_sealevel;temperature;humidity
77662;BME280;67292;52.136;5.424;2023-03-26T00:01:22;100888.66;;;7.92;100.00
77662;BME280;67292;52.136;5.424;2023-03-26T00:03:51;100893.09;;;7.91;100.00
77662;BME280;67292;52.136;5.424;2023-03-26T00:06:32;100891.31;;;7.92;100.00
77662;BME280;67292;52.136;5.424;2023-03-26T00:09:04;100893.97;;;7.92;100.00
77662;BME280;67292;52.136;5.424;2023-03-26T00:11:31;100889.56;;;7.91;100.00
77662;BME280;67292;52.136;5.424;2023-03-26T00:13:58;100884.34;;;7.89;100.00
77662;BME280;67292;52.136;5.424;2023-03-26T00:16:28;100880.81;;;7.89;100.00
77662;BME280;67292;52.136;5.424;2023-03-26T00:18:56;100881.69;;;7.89;100.00
77662;BME280;67292;52.136;5.424;2023-03-26T00:21:24;100882.59;;;7.88;100.00
77662;BME280;67292;52.136;5.424;2023-03-26T00:23:55;100878.16;;;7.89;100.00
77662;BME280;67292;52.136;5.424;2023-03-26T00:26:25;100885.25;;;7.88;100.00
77662;BME280;67292;52.136;5.424;2023-03-26T00:28:52;100873.78;;;7.88;100.00
77662;BME280;67292;52.136;5.424;2023-03-26T00:31:20;100874.69;;;7.87;100.00
77662;BME280;67292;52.136;5.424;2023-03-26T00:33:46;100882.66;;;7.85;100.00
77662;BME280;67292;52.136;5.424;2023-03-26T00:36:15;100881.78;;;7.85;100.00
77662;BME280;67292;52.136;5.424;2023-03-26T00:38:43;100869.44;;;7.84;100.00
77662;BME280;67292;52.136;5.424;2023-03-26T00:41:14;100865.94;;;7.82;100.00
77662;BME280;67292;52.136;5.424;2023-03-26T00:43:56;100854.50;;;7.80;100.00
77662;BME280;67292;52.136;5.424;2023-03-26T00:46:25;100860.75;;;7.79;100.00
77662;BME280;67292;52.136;5.424;2023-03-26T00:48:53;100849.34;;;7.75;100.00
77662;BME280;67292;52.136;5.424;2023-03-26T00:51:20;100846.75;;;7.72;100.00
77662;BME280;67292;52.136;5.424;2023-03-26T00:53:48;100852.09;;;7.69;100.00
77662;BME280;67292;52.136;5.424;2023-03-26T00:56:16;100849.50;;;7.67;100.00
77662;BME280;67292;52.136;5.424;2023-03-26T00:58:44;100844.28;;;7.64;100.00
77662;BME280;67292;52.136;5.424;2023-03-26T01:01:15;100837.19;;;7.66;100.00
77662;BME280;67292;52.136;5.424;2023-03-26T01:03:44;100845.13;;;7.66;100.00
77662;BME280;67292;52.136;5.424;2023-03-26T01:06:32;100840.72;;;7.65;100.00
77662;BME280;67292;52.136;5.424;2023-03-26T01:09:15;100845.13;;;7.66;100.00
77662;BME280;67292;52.136;5.424;2023-03-26T01:11:44;100838.94;;;7.66;100.00
77662;BME280;67292;52.136;5.424;2023-03-26T01:14:15;100840.72;;;7.65;100.00
77662;BME280;67292;52.136;5.424;2023-03-26T01:16:44;100825.75;;;7.64;100.00
77662;BME280;67292;52.136;5.424;2023-03-26T01:21:51;100822.22;;;7.64;100.00
77662;BME280;67292;52.136;5.424;2023-03-26T01:24:18;100816.06;;;7.63;100.00
77662;BME280;67292;52.136;5.424;2023-03-26T01:27:03;100810.75;;;7.63;100.00
77662;BME280;67292;52.136;5.424;2023-03-26T01:29:40;100807.22;;;7.63;100.00
77662;BME280;67292;52.136;5.424;2023-03-26T01:34:57;100798.44;;;7.61;100.00
77662;BME280;67292;52.136;5.424;2023-03-26T01:38:01;100798.41;;;7.62;100.00
77662;BME280;67292;52.136;5.424;2023-03-26T01:40:53;100797.53;;;7.62;100.00
77662;BME280;67292;52.136;5.424;2023-03-26T01:45:59;100786.06;;;7.63;100.00
77662;BME280;67292;52.136;5.424;2023-03-26T01:48:30;100794.84;;;7.65;100.00
77662;BME280;67292;52.136;5.424;2023-03-26T01:50:58;100783.34;;;7.66;100.00
77662;BME280;67292;52.136;5.424;2023-03-26T01:53:26;100781.56;;;7.66;100.00
77662;BME280;67292;52.136;5.424;2023-03-26T01:59:01;100774.53;;;7.65;100.00
77662;BME280;67292;52.136;5.424;2023-03-26T02:01:40;100765.72;;;7.65;100.00
77662;BME280;67292;52.136;5.424;2023-03-26T02:04:42;100758.63;;;7.65;100.00
77662;BME280;67292;52.136;5.424;2023-03-26T02:07:36;100754.28;;;7.63;100.00
77662;BME280;67292;52.136;5.424;2023-03-26T02:10:23;100751.66;;;7.61;100.00
77662;BME280;67292;52.136;5.424;2023-03-26T02:12:52;100749.03;;;7.60;100.00
77662;BME280;67292;52.136;5.424;2023-03-26T02:15:19;100738.47;;;7.58;100.00
77662;BME280;67292;52.136;5.424;2023-03-26T02:17:46;100747.31;;;7.59;100.00
77662;BME280;67292;52.136;5.424;2023-03-26T02:20:16;100743.84;;;7.57;100.00
77662;BME280;67292;52.136;5.424;2023-03-26T02:22:45;100742.09;;;7.56;100.00
77662;BME280;67292;52.136;5.424;2023-03-26T02:25:15;100747.44;;;7.54;100.00
77662;BME280;67292;52.136;5.424;2023-03-26T02:27:43;100735.09;;;7.53;100.00
77662;BME280;67292;52.136;5.424;2023-03-26T02:30:17;100733.34;;;7.52;100.00
77662;BME280;67292;52.136;5.424;2023-03-26T02:32:44;100723.66;;;7.51;100.00
77662;BME280;67292;52.136;5.424;2023-03-26T02:35:12;100726.34;;;7.50;100.00
77662;BME280;67292;52.136;5.424;2023-03-26T02:37:39;100720.16;;;7.51;100.00
77662;BME280;67292;52.136;5.424;2023-03-26T02:40:07;100720.13;;;7.52;100.00
77662;BME280;67292;52.136;5.424;2023-03-26T02:42:38;100717.44;;;7.54;100.00
77662;BME280;67292;52.136;5.424;2023-03-26T02:45:05;100720.06;;;7.55;100.00
77662;BME280;67292;52.136;5.424;2023-03-26T02:47:33;100711.19;;;7.56;100.00
77662;BME280;67292;52.136;5.424;2023-03-26T02:50:00;100709.44;;;7.57;100.00
77662;BME280;67292;52.136;5.424;2023-03-26T02:52:29;100711.09;;;7.59;100.00
77662;BME280;67292;52.136;5.424;2023-03-26T02:54:56;100714.59;;;7.61;100.00
77662;BME280;67292;52.136;5.424;2023-03-26T02:57:23;100708.41;;;7.62;100.00
77662;BME280;67292;52.136;5.424;2023-03-26T02:59:50;100708.38;;;7.64;100.00
77662;BME280;67292;52.136;5.424;2023-03-26T03:02:18;100699.47;;;7.66;100.00
77662;BME280;67292;52.136;5.424;2023-03-26T03:04:45;100706.53;;;7.67;100.00
77662;BME280;67292;52.136;5.424;2023-03-26T03:07:12;100701.16;;;7.69;100.00
77662;BME280;67292;52.136;5.424;2023-03-26T03:09:40;100703.75;;;7.72;100.00
77662;BME280;67292;52.136;5.424;2023-03-26T03:12:07;100693.13;;;7.74;100.00
77662;BME280;67292;52.136;5.424;2023-03-26T03:14:34;100698.34;;;7.77;100.00
77662;BME280;67292;52.136;5.424;2023-03-26T03:17:00;100693.03;;;7.77;100.00
77662;BME280;67292;52.136;5.424;2023-03-26T03:19:27;100692.06;;;7.79;100.00
77662;BME280;67292;52.136;5.424;2023-03-26T03:21:54;100686.75;;;7.81;100.00
77662;BME280;67292;52.136;5.424;2023-03-26T03:24:21;100684.91;;;7.84;100.00
77662;BME280;67292;52.136;5.424;2023-03-26T03:26:48;100683.09;;;7.86;100.00
77662;BME280;67292;52.136;5.424;2023-03-26T03:29:15;100680.41;;;7.88;100.00
77662;BME280;67292;52.136;5.424;2023-03-26T03:31:42;100676.84;;;7.89;100.00
77662;BME280;67292;52.136;5.424;2023-03-26T03:34:09;100672.34;;;7.91;100.00
77662;BME280;67292;52.136;5.424;2023-03-26T03:36:36;100672.31;;;7.92;100.00
77662;BME280;67292;52.136;5.424;2023-03-26T03:39:04;100668.72;;;7.95;100.00
77662;BME280;67292;52.136;5.424;2023-03-26T03:41:30;100669.56;;;7.97;100.00
77662;BME280;67292;52.136;5.424;2023-03-26T03:43:57;100667.75;;;7.99;100.00
77662;BME280;67292;52.136;5.424;2023-03-26T03:46:25;100669.41;;;8.01;100.00
77662;BME280;67292;52.136;5.424;2023-03-26T03:48:52;100672.88;;;8.05;100.00
77662;BME280;67292;52.136;5.424;2023-03-26T03:51:19;100660.44;;;8.07;100.00
77662;BME280;67292;52.136;5.424;2023-03-26T03:53:46;100668.38;;;8.09;100.00
77662;BME280;67292;52.136;5.424;2023-03-26T03:56:13;100669.19;;;8.11;100.00
77662;BME280;67292;52.136;5.424;2023-03-26T03:58:40;100668.22;;;8.13;100.00
77662;BME280;67292;52.136;5.424;2023-03-26T04:01:07;100660.28;;;8.13;100.00
77662;BME280;67292;52.136;5.424;2023-03-26T04:03:34;100657.63;;;8.13;100.00
77662;BME280;67292;52.136;5.424;2023-03-26T04:06:05;100664.63;;;8.16;100.00
77662;BME280;67292;52.136;5.424;2023-03-26T04:08:32;100661.88;;;8.20;100.00
77662;BME280;67292;52.136;5.424;2023-03-26T04:11:00;100660.09;;;8.21;100.00
77662;BME280;67292;52.136;5.424;2023-03-26T04:13:27;100647.72;;;8.21;100.00
77662;BME280;67292;52.136;5.424;2023-03-26T04:15:55;100645.97;;;8.20;100.00
77662;BME280;67292;52.136;5.424;2023-03-26T04:18:22;100644.13;;;8.22;100.00
77662;BME280;67292;52.136;5.424;2023-03-26T04:20:49;100632.69;;;8.22;100.00
77662;BME280;67292;52.136;5.424;2023-03-26T04:23:17;100638.78;;;8.24;100.00
77662;BME280;67292;52.136;5.424;2023-03-26T04:25:49;100633.50;;;8.22;100.00
77662;BME280;67292;52.136;5.424;2023-03-26T04:28:31;100626.41;;;8.24;100.00
77662;BME280;67292;52.136;5.424;2023-03-26T04:31:00;100628.13;;;8.25;100.00
77662;BME280;67292;52.136;5.424;2023-03-26T04:33:31;100620.19;;;8.25;100.00
77662;BME280;67292;52.136;5.424;2023-03-26T04:36:00;100616.63;;;8.26;100.00
77662;BME280;67292;52.136;5.424;2023-03-26T04:38:30;100611.38;;;8.25;100.00
77662;BME280;67292;52.136;5.424;2023-03-26T04:41:00;100604.25;;;8.27;100.00
77662;BME280;67292;52.136;5.424;2023-03-26T04:43:29;100601.59;;;8.27;100.00
77662;BME280;67292;52.136;5.424;2023-03-26T04:45:56;100598.03;;;8.28;100.00
77662;BME280;67292;52.136;5.424;2023-03-26T04:48:23;100595.44;;;8.26;100.00
77662;BME280;67292;52.136;5.424;2023-03-26T04:50:50;100583.94;;;8.26;100.00
77662;BME280;67292;52.136;5.424;2023-03-26T04:53:19;100584.81;;;8.26;100.00
77662;BME280;67292;52.136;5.424;2023-03-26T04:55:51;100590.97;;;8.28;100.00
77662;BME280;67292;52.136;5.424;2023-03-26T04:58:21;100582.16;;;8.26;100.00
77662;BME280;67292;52.136;5.424;2023-03-26T05:01:01;100577.75;;;8.27;100.00
77662;BME280;67292;52.136;5.424;2023-03-26T05:03:36;100568.03;;;8.26;100.00
77662;BME280;67292;52.136;5.424;2023-03-26T05:06:04;100569.78;;;8.27;100.00
77662;BME280;67292;52.136;5.424;2023-03-26T05:08:31;100570.66;;;8.27;100.00
77662;BME280;67292;52.136;5.424;2023-03-26T05:10:58;100559.19;;;8.27;100.00
77662;BME280;67292;52.136;5.424;2023-03-26T05:13:25;100564.50;;;8.27;100.00
77662;BME280;67292;52.136;5.424;2023-03-26T05:15:52;100558.25;;;8.29;100.00
77662;BME280;67292;52.136;5.424;2023-03-26T05:18:21;100566.19;;;8.29;100.00
77662;BME280;67292;52.136;5.424;2023-03-26T05:20:48;100550.31;;;8.28;100.00
77662;BME280;67292;52.136;5.424;2023-03-26T05:23:14;100554.72;;;8.29;100.00
77662;BME280;67292;52.136;5.424;2023-03-26T05:25:41;100556.50;;;8.28;100.00
77662;BME280;67292;52.136;5.424;2023-03-26T05:28:09;100551.19;;;8.28;100.00
77662;BME280;67292;52.136;5.424;2023-03-26T05:30:36;100543.28;;;8.27;100.00
77662;BME280;67292;52.136;5.424;2023-03-26T05:33:03;100540.59;;;8.28;100.00
77662;BME280;67292;52.136;5.424;2023-03-26T05:35:30;100535.28;;;8.28;100.00
77662;BME280;67292;52.136;5.424;2023-03-26T05:37:57;100539.69;;;8.29;100.00
77662;BME280;67292;52.136;5.424;2023-03-26T05:40:24;100539.69;;;8.29;100.00
77662;BME280;67292;52.136;5.424;2023-03-26T05:42:50;100533.50;;;8.29;100.00
77662;BME280;67292;52.136;5.424;2023-03-26T05:45:17;100529.94;;;8.30;100.00
77662;BME280;67292;52.136;5.424;2023-03-26T05:47:44;100527.28;;;8.31;100.00
77662;BME280;67292;52.136;5.424;2023-03-26T05:50:11;100520.22;;;8.32;100.00
77662;BME280;67292;52.136;5.424;2023-03-26T05:52:38;100524.63;;;8.31;100.00
77662;BME280;67292;52.136;5.424;2023-03-26T05:55:08;100518.44;;;8.32;100.00
77662;BME280;67292;52.136;5.424;2023-03-26T05:57:35;100519.25;;;8.33;100.00
77662;BME280;67292;52.136;5.424;2023-03-26T06:00:05;100511.31;;;8.33;100.00
77662;BME280;67292;52.136;5.424;2023-03-26T06:02:34;100517.56;;;8.32;100.00
77662;BME280;67292;52.136;5.424;2023-03-26T06:05:01;100517.56;;;8.32;100.00
77662;BME280;67292;52.136;5.424;2023-03-26T06:07:28;100511.31;;;8.33;100.00
77662;BME280;67292;52.136;5.424;2023-03-26T06:09:55;100506.00;;;8.33;100.00
77662;BME280;67292;52.136;5.424;2023-03-26T06:12:22;100503.31;;;8.34;100.00
77662;BME280;67292;52.136;5.424;2023-03-26T06:18:31;100494.41;;;8.37;100.00
77662;BME280;67292;52.136;5.424;2023-03-26T06:20:58;100489.06;;;8.38;100.00
77662;BME280;67292;52.136;5.424;2023-03-26T06:23:25;100484.63;;;8.39;100.00
77662;BME280;67292;52.136;5.424;2023-03-26T06:25:52;100479.28;;;8.40;100.00
77662;BME280;67292;52.136;5.424;2023-03-26T06:28:18;100488.13;;;8.41;100.00
77662;BME280;67292;52.136;5.424;2023-03-26T06:30:45;100478.38;;;8.41;100.00
77662;BME280;67292;52.136;5.424;2023-03-26T06:33:14;100477.47;;;8.43;100.00
77662;BME280;67292;52.136;5.424;2023-03-26T06:35:42;100477.38;;;8.44;100.00
77662;BME280;67292;52.136;5.424;2023-03-26T06:38:10;100477.38;;;8.44;100.00
77662;BME280;67292;52.136;5.424;2023-03-26T06:40:37;100475.56;;;8.46;100.00
77662;BME280;67292;52.136;5.424;2023-03-26T06:43:04;100476.38;;;8.48;100.00
77662;BME280;67292;52.136;5.424;2023-03-26T06:45:36;100472.81;;;8.49;100.00
77662;BME280;67292;52.136;5.424;2023-03-26T06:48:03;100469.25;;;8.50;100.00
77662;BME280;67292;52.136;5.424;2023-03-26T06:50:30;100473.59;;;8.53;100.00
77662;BME280;67292;52.136;5.424;2023-03-26T06:52:58;100470.09;;;8.52;100.00
77662;BME280;67292;52.136;5.424;2023-03-26T06:55:25;100471.81;;;8.53;100.00
77662;BME280;67292;52.136;5.424;2023-03-26T06:57:53;100467.41;;;8.54;100.00
77662;BME280;67292;52.136;5.424;2023-03-26T07:00:21;100470.91;;;8.54;100.00
77662;BME280;67292;52.136;5.424;2023-03-26T07:02:48;100467.31;;;8.55;100.00
77662;BME280;67292;52.136;5.424;2023-03-26T07:05:17;100476.03;;;8.59;100.00
77662;BME280;67292;52.136;5.424;2023-03-26T07:07:46;100472.53;;;8.58;100.00
77662;BME280;67292;52.136;5.424;2023-03-26T07:10:13;100479.56;;;8.59;100.00
77662;BME280;67292;52.136;5.424;2023-03-26T07:12:42;100473.34;;;8.60;100.00
77662;BME280;67292;52.136;5.424;2023-03-26T07:15:09;100465.41;;;8.60;100.00
77662;BME280;67292;52.136;5.424;2023-03-26T07:17:36;100468.00;;;8.62;100.00
77662;BME280;67292;52.136;5.424;2023-03-26T07:20:04;100467.97;;;8.63;100.00
77662;BME280;67292;52.136;5.424;2023-03-26T07:22:33;100468.75;;;8.65;100.00
77662;BME280;67292;52.136;5.424;2023-03-26T07:25:00;100465.19;;;8.66;100.00
77662;BME280;67292;52.136;5.424;2023-03-26T07:33:33;100465.13;;;8.68;100.00
77662;BME280;67292;52.136;5.424;2023-03-26T07:36:16;100466.84;;;8.70;100.00
77662;BME280;67292;52.136;5.424;2023-03-26T07:39:11;100459.69;;;8.72;100.00
77662;BME280;67292;52.136;5.424;2023-03-26T07:41:50;100460.56;;;8.73;100.00
77662;BME280;67292;52.136;5.424;2023-03-26T07:44:49;100458.78;;;8.73;100.00
77662;BME280;67292;52.136;5.424;2023-03-26T07:47:31;100460.53;;;8.74;100.00
77662;BME280;67292;52.136;5.424;2023-03-26T07:49:58;100459.59;;;8.75;100.00
77662;BME280;67292;52.136;5.424;2023-03-26T07:52:26;100463.06;;;8.77;100.00
77662;BME280;67292;52.136;5.424;2023-03-26T07:54:54;100464.78;;;8.78;100.00
77662;BME280;67292;52.136;5.424;2023-03-26T08:00:33;100456.78;;;8.80;100.00
77662;BME280;67292;52.136;5.424;2023-03-26T08:05:52;100452.25;;;8.84;100.00
77662;BME280;67292;52.136;5.424;2023-03-26T08:14:19;100454.75;;;8.88;100.00
77662;BME280;67292;52.136;5.424;2023-03-26T08:23:07;100451.16;;;8.89;100.00
77662;BME280;67292;52.136;5.424;2023-03-26T08:25:52;100445.00;;;8.89;100.00
77662;BME280;67292;52.136;5.424;2023-03-26T08:28:56;100449.44;;;8.88;100.00
77662;BME280;67292;52.136;5.424;2023-03-26T08:31:34;100441.47;;;8.88;100.00
77662;BME280;67292;52.136;5.424;2023-03-26T08:34:01;100445.03;;;8.87;100.00
77662;BME280;67292;52.136;5.424;2023-03-26T08:36:28;100447.66;;;8.89;100.00
77662;BME280;67292;52.136;5.424;2023-03-26T08:38:55;100444.13;;;8.88;100.00
77662;BME280;67292;52.136;5.424;2023-03-26T08:41:49;100440.72;;;8.85;100.00
77662;BME280;67292;52.136;5.424;2023-03-26T08:47:32;100444.25;;;8.85;100.00
77662;BME280;67292;52.136;5.424;2023-03-26T08:53:33;100451.47;;;8.80;100.00
77662;BME280;67292;52.136;5.424;2023-03-26T09:10:34;100455.41;;;8.68;100.00
77662;BME280;67292;52.136;5.424;2023-03-26T09:25:07;100448.75;;;8.55;100.00
77662;BME280;67292;52.136;5.424;2023-03-26T09:27:52;100456.66;;;8.57;100.00
77662;BME280;67292;52.136;5.424;2023-03-26T09:35:52;100455.75;;;8.58;100.00
77662;BME280;67292;52.136;5.424;2023-03-26T09:38:32;100455.75;;;8.58;100.00
77662;BME280;67292;52.136;5.424;2023-03-26T09:44:22;100453.91;;;8.60;100.00
77662;BME280;67292;52.136;5.424;2023-03-26T09:52:44;100467.19;;;8.60;100.00
77662;BME280;67292;52.136;5.424;2023-03-26T09:55:48;100468.97;;;8.59;100.00
77662;BME280;67292;52.136;5.424;2023-03-26T09:58:38;100470.78;;;8.57;100.00
77662;BME280;67292;52.136;5.424;2023-03-26T10:12:38;100479.00;;;8.50;100.00
77662;BME280;67292;52.136;5.424;2023-03-26T10:23:59;100489.53;;;8.53;100.00
77662;BME280;67292;52.136;5.424;2023-03-26T10:29:04;100484.16;;;8.54;100.00
77662;BME280;67292;52.136;5.424;2023-03-26T10:37:36;100493.03;;;8.53;100.00
77662;BME280;67292;52.136;5.424;2023-03-26T10:44:07;100494.88;;;8.51;100.00
77662;BME280;67292;52.136;5.424;2023-03-26T10:52:04;100510.78;;;8.51;100.00
77662;BME280;67292;52.136;5.424;2023-03-26T10:54:45;100500.22;;;8.50;100.00
77662;BME280;67292;52.136;5.424;2023-03-26T11:00:20;100502.25;;;8.41;100.00
77662;BME280;67292;52.136;5.424;2023-03-26T11:08:23;100512.09;;;8.36;100.00
77662;BME280;67292;52.136;5.424;2023-03-26T11:11:18;100516.53;;;8.36;100.00
77662;BME280;67292;52.136;5.424;2023-03-26T11:13:58;100523.53;;;8.38;100.00
77662;BME280;67292;52.136;5.424;2023-03-26T11:17:11;100520.97;;;8.35;100.00
77662;BME280;67292;52.136;5.424;2023-03-26T11:25:41;100526.38;;;8.32;100.00
77662;BME280;67292;52.136;5.424;2023-03-26T11:33:47;100529.63;;;8.42;100.00
77662;BME280;67292;52.136;5.424;2023-03-26T11:36:29;100534.81;;;8.45;100.00
77662;BME280;67292;52.136;5.424;2023-03-26T11:39:02;100541.84;;;8.46;100.00
77662;BME280;67292;52.136;5.424;2023-03-26T11:41:30;100547.94;;;8.50;100.00
77662;BME280;67292;52.136;5.424;2023-03-26T11:44:13;100548.03;;;8.47;100.00
77662;BME280;67292;52.136;5.424;2023-03-26T11:47:07;100540.09;;;8.45;100.00
77662;BME280;67292;52.136;5.424;2023-03-26T11:49:37;100553.53;;;8.40;100.00
77662;BME280;67292;52.136;5.424;2023-03-26T11:52:04;100546.56;;;8.36;100.00
77662;BME280;67292;52.136;5.424;2023-03-26T11:54:33;100551.94;;;8.33;100.00
77662;BME280;67292;52.136;5.424;2023-03-26T11:57:08;100557.31;;;8.32;100.00
77662;BME280;67292;52.136;5.424;2023-03-26T12:00:02;100556.47;;;8.30;100.00
77662;BME280;67292;52.136;5.424;2023-03-26T12:02:39;100558.25;;;8.29;100.00
77662;BME280;67292;52.136;5.424;2023-03-26T12:05:19;100558.97;;;8.34;100.00
77662;BME280;67292;52.136;5.424;2023-03-26T12:08:16;100555.44;;;8.35;100.00
77662;BME280;67292;52.136;5.424;2023-03-26T12:10:43;100563.28;;;8.38;100.00
77662;BME280;67292;52.136;5.424;2023-03-26T12:16:13;100557.94;;;8.40;100.00
77662;BME280;67292;52.136;5.424;2023-03-26T12:18:42;100560.56;;;8.41;100.00
77662;BME280;67292;52.136;5.424;2023-03-26T12:21:48;100571.06;;;8.45;100.00
77662;BME280;67292;52.136;5.424;2023-03-26T12:24:35;100570.94;;;8.49;100.00
77662;BME280;67292;52.136;5.424;2023-03-26T12:27:25;100568.19;;;8.52;100.00
77662;BME280;67292;52.136;5.424;2023-03-26T12:30:29;100567.09;;;8.59;100.00
77662;BME280;67292;52.136;5.424;2023-03-26T12:33:29;100568.75;;;8.63;100.00
77662;BME280;67292;52.136;5.424;2023-03-26T12:36:29;100574.66;;;8.71;100.00
77662;BME280;67292;52.136;5.424;2023-03-26T12:38:59;100573.78;;;8.71;100.00
77662;BME280;67292;52.136;5.424;2023-03-26T12:41:57;100585.28;;;8.71;100.00
77662;BME280;67292;52.136;5.424;2023-03-26T12:44:50;100577.28;;;8.73;100.00
77662;BME280;67292;52.136;5.424;2023-03-26T12:47:29;100584.31;;;8.74;100.00
77662;BME280;67292;52.136;5.424;2023-03-26T12:50:25;100584.31;;;8.74;100.00
77662;BME280;67292;52.136;5.424;2023-03-26T13:08:17;100609.66;;;8.84;100.00
77662;BME280;67292;52.136;5.424;2023-03-26T13:10:48;100605.97;;;8.88;100.00
77662;BME280;67292;52.136;5.424;2023-03-26T13:13:38;100608.50;;;8.93;100.00
77662;BME280;67292;52.136;5.424;2023-03-26T13:16:29;100612.84;;;8.95;99.46
77662;BME280;67292;52.136;5.424;2023-03-26T13:24:57;100614.50;;;8.98;97.22
77662;BME280;67292;52.136;5.424;2023-03-26T13:30:35;100618.19;;;8.94;97.20
77662;BME280;67292;52.136;5.424;2023-03-26T13:36:19;100638.47;;;8.96;97.44
77662;BME280;67292;52.136;5.424;2023-03-26T13:47:35;100631.09;;;9.06;98.33
77662;BME280;67292;52.136;5.424;2023-03-26T13:50:25;100634.47;;;9.09;95.17
77662;BME280;67292;52.136;5.424;2023-03-26T13:53:04;100628.31;;;9.09;95.37
77662;BME280;67292;52.136;5.424;2023-03-26T13:55:44;100641.44;;;9.13;96.93
77662;BME280;67292;52.136;5.424;2023-03-26T13:58:30;100637.88;;;9.14;96.13
77662;BME280;67292;52.136;5.424;2023-03-26T14:01:20;100643.09;;;9.18;96.29
77662;BME280;67292;52.136;5.424;2023-03-26T14:04:04;100644.00;;;9.17;95.20
77662;BME280;67292;52.136;5.424;2023-03-26T14:06:49;100650.22;;;9.15;93.50
77662;BME280;67292;52.136;5.424;2023-03-26T14:09:42;100655.53;;;9.15;96.42
77662;BME280;67292;52.136;5.424;2023-03-26T14:12:51;100662.63;;;9.15;96.85
77662;BME280;67292;52.136;5.424;2023-03-26T14:24:26;100677.19;;;9.02;96.35
77662;BME280;67292;52.136;5.424;2023-03-26T14:27:00;100676.31;;;9.01;95.97
77662;BME280;67292;52.136;5.424;2023-03-26T14:29:55;100688.63;;;9.04;95.65
77662;BME280;67292;52.136;5.424;2023-03-26T14:39:03;100697.91;;;8.89;91.55
77662;BME280;67292;52.136;5.424;2023-03-26T14:41:57;100706.97;;;8.82;92.75
77662;BME280;67292;52.136;5.424;2023-03-26T14:47:30;100708.84;;;8.78;92.51
77662;BME280;67292;52.136;5.424;2023-03-26T14:52:53;100730.22;;;8.74;93.04
77662;BME280;67292;52.136;5.424;2023-03-26T14:58:48;100739.38;;;8.62;91.51
77662;BME280;67292;52.136;5.424;2023-03-26T15:01:24;100736.81;;;8.59;91.77
77662;BME280;67292;52.136;5.424;2023-03-26T15:27:11;100776.25;;;8.39;90.09
77662;BME280;67292;52.136;5.424;2023-03-26T15:41:41;100798.31;;;8.41;90.30
77662;BME280;67292;52.136;5.424;2023-03-26T15:50:10;100810.75;;;8.37;86.89
77662;BME280;67292;52.136;5.424;2023-03-26T15:55:27;100837.44;;;8.30;90.22
77662;BME280;67292;52.136;5.424;2023-03-26T15:58:11;100847.22;;;8.26;88.46
77662;BME280;67292;52.136;5.424;2023-03-26T16:01:06;100851.78;;;8.21;87.82
77662;BME280;67292;52.136;5.424;2023-03-26T16:03:54;100855.44;;;8.16;87.68
77662;BME280;67292;52.136;5.424;2023-03-26T16:06:28;100860.75;;;8.16;88.11
77662;BME280;67292;52.136;5.424;2023-03-26T16:11:54;100876.88;;;8.06;87.39
77662;BME280;67292;52.136;5.424;2023-03-26T16:14:40;100879.56;;;8.03;87.59
77662;BME280;67292;52.136;5.424;2023-03-26T16:17:21;100888.47;;;8.01;88.31
77662;BME280;67292;52.136;5.424;2023-03-26T16:20:27;100885.97;;;7.95;84.74
77662;BME280;67292;52.136;5.424;2023-03-26T16:23:01;100888.66;;;7.92;86.24
77662;BME280;67292;52.136;5.424;2023-03-26T16:25:53;100887.03;;;7.86;86.70
77662;BME280;67292;52.136;5.424;2023-03-26T16:28:29;100904.78;;;7.83;83.87
77662;BME280;67292;52.136;5.424;2023-03-26T16:36:31;100915.56;;;7.74;87.30
77662;BME280;67292;52.136;5.424;2023-03-26T16:41:56;100919.25;;;7.66;88.26
77662;BME280;67292;52.136;5.424;2023-03-26T16:45:16;100938.72;;;7.65;87.24
77662;BME280;67292;52.136;5.424;2023-03-26T16:50:45;100954.69;;;7.59;85.92
77662;BME280;67292;52.136;5.424;2023-03-26T16:53:41;100949.50;;;7.56;87.56
77662;BME280;67292;52.136;5.424;2023-03-26T17:05:35;100988.59;;;7.41;85.51
77662;BME280;67292;52.136;5.424;2023-03-26T17:10:52;101000.25;;;7.32;83.80
77662;BME280;67292;52.136;5.424;2023-03-26T17:16:21;101004.81;;;7.24;85.76
77662;BME280;67292;52.136;5.424;2023-03-26T17:19:00;101019.88;;;7.19;83.77
77662;BME280;67292;52.136;5.424;2023-03-26T17:21:51;101023.56;;;7.10;83.71
77662;BME280;67292;52.136;5.424;2023-03-26T17:27:03;101042.25;;;7.01;84.17
77662;BME280;67292;52.136;5.424;2023-03-26T17:29:50;101044.03;;;6.99;84.48
77662;BME280;67292;52.136;5.424;2023-03-26T17:35:37;101055.63;;;6.90;85.23
77662;BME280;67292;52.136;5.424;2023-03-26T17:41:13;101072.44;;;6.86;83.88
77662;BME280;67292;52.136;5.424;2023-03-26T17:43:51;101080.38;;;6.86;87.46
77662;BME280;67292;52.136;5.424;2023-03-26T17:46:36;101078.59;;;6.87;86.54
77662;BME280;67292;52.136;5.424;2023-03-26T17:55:17;101086.72;;;6.73;83.42
77662;BME280;67292;52.136;5.424;2023-03-26T17:58:03;101092.97;;;6.69;84.06
77662;BME280;67292;52.136;5.424;2023-03-26T18:00:40;101108.88;;;6.68;84.12
77662;BME280;67292;52.136;5.424;2023-03-26T18:03:17;101106.28;;;6.63;84.03
77662;BME280;67292;52.136;5.424;2023-03-26T18:05:54;101116.84;;;6.63;85.84
77662;BME280;67292;52.136;5.424;2023-03-26T18:13:55;101134.72;;;6.46;84.67
77662;BME280;67292;52.136;5.424;2023-03-26T18:16:36;101140.91;;;6.43;84.92
77662;BME280;67292;52.136;5.424;2023-03-26T18:19:12;101144.53;;;6.35;83.86
77662;BME280;67292;52.136;5.424;2023-03-26T18:21:50;101153.41;;;6.29;84.04
77662;BME280;67292;52.136;5.424;2023-03-26T18:24:22;101150.81;;;6.25;84.20
77662;BME280;67292;52.136;5.424;2023-03-26T18:27:10;101162.31;;;6.20;83.63
77662;BME280;67292;52.136;5.424;2023-03-26T18:30:11;101170.25;;;6.17;84.41
77662;BME280;67292;52.136;5.424;2023-03-26T18:33:00;101179.94;;;6.20;85.43